createdAt,value
2022-07-26T00:02:26.283Z,50.60
2022-07-26T00:04:53.041Z,51.07
2022-07-26T00:07:19.610Z,51.15
2022-07-26T00:09:48.405Z,51.50
2022-07-26T00:12:15.559Z,51.58
2022-07-26T00:14:43.501Z,51.41
2022-07-26T00:17:10.499Z,51.56
2022-07-26T00:19:37.032Z,51.72
2022-07-26T00:22:22.385Z,51.92
2022-07-26T00:24:48.808Z,52.18
2022-07-26T00:27:15.277Z,52.15
2022-07-26T00:29:41.741Z,52.07
2022-07-26T00:32:08.147Z,52.15
2022-07-26T00:34:34.698Z,52.48
2022-07-26T00:37:01.229Z,52.81
2022-07-26T00:39:28.822Z,52.81
2022-07-26T00:41:55.454Z,52.87
2022-07-26T00:44:21.941Z,53.33
2022-07-26T00:46:48.357Z,53.25
2022-07-26T00:49:14.974Z,53.69
2022-07-26T00:51:42.205Z,53.68
2022-07-26T00:54:13.246Z,53.31
2022-07-26T00:56:40.007Z,53.53
2022-07-26T00:59:06.733Z,53.51
2022-07-26T01:01:33.518Z,53.56
2022-07-26T01:04:00.059Z,53.80
2022-07-26T01:06:27.517Z,53.84
2022-07-26T01:08:54.455Z,53.84
2022-07-26T01:11:20.981Z,53.43
2022-07-26T01:13:49.306Z,53.82
2022-07-26T01:16:16.246Z,54.11
2022-07-26T01:18:43.322Z,54.40
2022-07-26T01:21:13.908Z,54.37
2022-07-26T01:23:41.412Z,54.43
2022-07-26T01:26:08.227Z,54.45
2022-07-26T01:28:37.727Z,54.20
2022-07-26T01:31:06.157Z,54.53
2022-07-26T01:33:34.773Z,55.09
2022-07-26T01:36:01.651Z,55.07
2022-07-26T01:38:28.300Z,55.05
2022-07-26T01:40:54.773Z,54.96
2022-07-26T01:43:21.202Z,54.78
2022-07-26T01:45:47.769Z,55.40
2022-07-26T01:48:14.597Z,55.92
2022-07-26T01:50:41.151Z,56.01
2022-07-26T01:53:07.607Z,56.03
2022-07-26T01:55:34.551Z,55.31
2022-07-26T01:58:01.124Z,55.29
2022-07-26T02:00:27.531Z,55.23
2022-07-26T02:02:54.044Z,55.12
2022-07-26T02:05:20.655Z,55.36
2022-07-26T02:07:47.124Z,55.17
2022-07-26T02:10:14.544Z,55.13
2022-07-26T02:12:41.505Z,55.70
2022-07-26T02:15:09.330Z,55.57
2022-07-26T02:17:35.763Z,55.67
2022-07-26T02:20:02.448Z,55.52
2022-07-26T02:22:28.932Z,55.29
2022-07-26T02:24:55.597Z,55.53
2022-07-26T02:27:22.050Z,55.57
2022-07-26T02:29:48.503Z,55.74
2022-07-26T02:32:14.905Z,56.75
2022-07-26T02:34:41.371Z,56.41
2022-07-26T02:37:07.947Z,56.67
2022-07-26T02:39:34.418Z,57.07
2022-07-26T02:42:02.298Z,56.82
2022-07-26T02:44:30.461Z,57.07
2022-07-26T02:47:00.992Z,56.89
2022-07-26T02:49:27.400Z,57.63
2022-07-26T02:51:53.768Z,57.95
2022-07-26T02:54:20.571Z,57.91
2022-07-26T02:56:47.132Z,57.21
2022-07-26T02:59:13.611Z,57.95
2022-07-26T03:02:04.571Z,57.62
2022-07-26T03:04:32.660Z,57.78
2022-07-26T03:06:59.057Z,58.22
2022-07-26T03:09:25.482Z,58.48
2022-07-26T03:14:56.059Z,59.28
2022-07-26T03:17:28.624Z,59.40
2022-07-26T03:19:55.334Z,59.34
2022-07-26T03:22:26.784Z,59.64
2022-07-26T03:24:53.737Z,59.19
2022-07-26T03:27:20.231Z,59.82
2022-07-26T03:32:30.332Z,60.21
2022-07-26T03:35:00.129Z,60.06
2022-07-26T03:37:26.975Z,59.61
2022-07-26T03:40:12.800Z,60.00
2022-07-26T03:42:39.195Z,60.38
2022-07-26T03:45:06.169Z,60.67
2022-07-26T03:47:32.558Z,60.47
2022-07-26T03:49:58.968Z,60.67
2022-07-26T03:52:25.368Z,60.46
2022-07-26T03:54:51.774Z,60.72
2022-07-26T03:57:18.216Z,61.43
2022-07-26T03:59:44.977Z,61.11
2022-07-26T04:02:11.501Z,60.97
2022-07-26T04:04:38.007Z,61.49
2022-07-26T04:07:06.344Z,61.55
2022-07-26T04:09:35.931Z,60.69
2022-07-26T04:12:02.339Z,60.95
2022-07-26T04:14:28.760Z,61.05
2022-07-26T04:19:38.954Z,61.58
2022-07-26T04:22:06.334Z,61.03
2022-07-26T04:24:32.877Z,62.06
2022-07-26T04:27:00.829Z,61.58
2022-07-26T04:29:28.037Z,61.92
2022-07-26T04:34:35.102Z,62.25
2022-07-26T04:37:09.074Z,62.80
2022-07-26T04:39:36.423Z,63.02
2022-07-26T04:42:02.918Z,63.86
2022-07-26T04:44:29.341Z,63.38
2022-07-26T04:46:55.723Z,62.99
2022-07-26T04:49:22.950Z,63.45
2022-07-26T04:51:49.426Z,63.25
2022-07-26T04:54:20.572Z,64.12
2022-07-26T04:56:47.665Z,63.49
2022-07-26T04:59:18.456Z,64.08
2022-07-26T05:01:47.841Z,63.80
2022-07-26T05:04:14.400Z,64.11
2022-07-26T05:06:40.803Z,63.60
2022-07-26T05:09:07.353Z,63.97
2022-07-26T05:11:33.773Z,63.87
2022-07-26T05:14:00.156Z,63.77
2022-07-26T05:16:26.717Z,63.40
2022-07-26T05:18:55.722Z,63.58
2022-07-26T05:21:22.180Z,63.84
2022-07-26T05:23:48.731Z,63.47
2022-07-26T05:26:15.303Z,63.80
2022-07-26T05:28:41.774Z,64.08
2022-07-26T05:31:08.368Z,64.01
2022-07-26T05:33:34.771Z,63.96
2022-07-26T05:36:01.331Z,64.07
2022-07-26T05:38:27.797Z,64.74
2022-07-26T05:40:54.213Z,64.33
2022-07-26T05:43:20.611Z,64.22
2022-07-26T05:45:47.206Z,64.14
2022-07-26T05:48:13.896Z,64.48
2022-07-26T05:50:40.496Z,64.89
2022-07-26T05:53:06.931Z,64.86
2022-07-26T05:55:33.927Z,64.95
2022-07-26T05:58:00.371Z,65.30
2022-07-26T06:00:26.813Z,65.36
2022-07-26T06:02:53.307Z,65.33
2022-07-26T06:05:20.008Z,65.08
2022-07-26T06:07:46.489Z,64.95
2022-07-26T06:10:13.179Z,65.39
2022-07-26T06:12:39.726Z,65.30
2022-07-26T06:15:15.314Z,65.29
2022-07-26T06:17:42.677Z,65.64
2022-07-26T06:20:09.748Z,65.81
2022-07-26T06:22:36.153Z,65.05
2022-07-26T06:25:02.567Z,65.48
2022-07-26T06:27:31.721Z,65.93
2022-07-26T06:29:58.228Z,66.18
2022-07-26T06:32:24.641Z,66.28
2022-07-26T06:34:51.060Z,66.09
2022-07-26T06:37:17.508Z,66.58
2022-07-26T06:39:43.921Z,66.50
2022-07-26T06:42:10.323Z,66.40
2022-07-26T06:44:36.779Z,66.28
2022-07-26T06:47:03.372Z,66.75
2022-07-26T06:49:29.871Z,66.34
2022-07-26T06:51:57.904Z,66.33
2022-07-26T06:54:24.440Z,66.54
2022-07-26T06:56:50.892Z,66.54
2022-07-26T06:59:17.341Z,66.49
2022-07-26T07:01:58.721Z,66.10
2022-07-26T07:04:27.224Z,66.18
2022-07-26T07:06:53.688Z,66.41
2022-07-26T07:09:21.609Z,66.14
2022-07-26T07:11:51.765Z,66.35
2022-07-26T07:14:22.745Z,65.70
2022-07-26T07:16:49.186Z,64.96
2022-07-26T07:19:15.682Z,65.43
2022-07-26T07:21:42.092Z,65.60
2022-07-26T07:24:09.634Z,65.51
2022-07-26T07:26:36.823Z,65.78
2022-07-26T07:29:04.274Z,65.28
2022-07-26T07:31:48.723Z,64.62
2022-07-26T07:34:18.106Z,64.88
2022-07-26T07:36:46.454Z,64.51
2022-07-26T07:39:17.644Z,64.10
2022-07-26T07:41:45.026Z,63.60
2022-07-26T07:44:11.810Z,63.20
2022-07-26T07:46:38.813Z,63.06
2022-07-26T07:49:05.854Z,62.67
2022-07-26T07:51:33.322Z,61.86
2022-07-26T07:54:06.058Z,62.10
2022-07-26T07:56:33.474Z,60.92
2022-07-26T07:59:00.104Z,61.10
2022-07-26T08:01:39.578Z,60.97
2022-07-26T08:04:07.944Z,60.33
2022-07-26T08:06:34.453Z,60.70
2022-07-26T08:09:01.069Z,60.50
2022-07-26T08:11:30.477Z,60.36
2022-07-26T08:13:57.203Z,60.98
2022-07-26T08:16:24.465Z,60.73
2022-07-26T08:18:57.047Z,60.47
2022-07-26T08:21:24.673Z,60.48
2022-07-26T08:23:54.039Z,60.45
2022-07-26T08:26:20.644Z,60.60
2022-07-26T08:28:48.175Z,60.38
2022-07-26T08:31:16.882Z,60.14
2022-07-26T08:33:52.826Z,59.89
2022-07-26T08:36:19.289Z,59.82
2022-07-26T08:38:46.320Z,59.12
2022-07-26T08:41:14.973Z,58.78
2022-07-26T08:43:43.763Z,58.42
2022-07-26T08:46:24.340Z,56.99
2022-07-26T08:48:52.355Z,56.79
2022-07-26T08:51:22.382Z,56.62
2022-07-26T08:53:50.233Z,56.48
2022-07-26T08:56:16.619Z,56.11
2022-07-26T08:58:43.788Z,54.77
2022-07-26T09:01:23.056Z,54.67
2022-07-26T09:03:52.075Z,55.09
2022-07-26T09:06:21.926Z,55.29
2022-07-26T09:08:52.894Z,55.93
2022-07-26T09:11:31.121Z,55.37
2022-07-26T09:14:06.725Z,55.03
2022-07-26T09:16:39.497Z,55.79
2022-07-26T09:19:21.344Z,56.97
2022-07-26T09:21:49.116Z,56.95
2022-07-26T09:24:35.004Z,56.79
2022-07-26T09:27:05.200Z,56.82
2022-07-26T09:29:43.158Z,55.21
2022-07-26T09:32:12.588Z,55.26
2022-07-26T09:34:51.953Z,54.90
2022-07-26T09:37:34.487Z,55.63
2022-07-26T09:40:17.439Z,54.99
2022-07-26T09:43:02.237Z,55.55
2022-07-26T09:45:30.822Z,55.88
2022-07-26T09:47:57.818Z,57.39
2022-07-26T09:50:27.862Z,59.08
2022-07-26T09:53:02.129Z,59.64
2022-07-26T09:55:39.309Z,59.54
2022-07-26T09:58:13.899Z,59.62
2022-07-26T10:00:40.682Z,59.13
2022-07-26T10:03:10.131Z,58.95
2022-07-26T10:05:37.875Z,58.47
2022-07-26T10:08:05.385Z,59.18
2022-07-26T10:10:38.985Z,58.05
2022-07-26T10:13:08.019Z,56.60
2022-07-26T10:15:38.455Z,55.04
2022-07-26T10:18:08.436Z,54.92
2022-07-26T10:20:49.912Z,55.33
2022-07-26T10:23:40.134Z,54.43
2022-07-26T10:26:21.370Z,54.27
2022-07-26T10:28:47.955Z,54.46
2022-07-26T10:31:51.293Z,55.07
2022-07-26T10:34:56.472Z,55.58
2022-07-26T10:37:27.795Z,55.10
2022-07-26T10:40:22.320Z,54.73
2022-07-26T10:42:48.810Z,54.16
2022-07-26T10:45:21.219Z,52.91
2022-07-26T10:48:17.154Z,52.40
2022-07-26T10:50:46.719Z,51.31
2022-07-26T10:53:19.200Z,50.82
2022-07-26T10:55:53.635Z,50.61
2022-07-26T10:58:21.920Z,51.23
2022-07-26T11:01:03.295Z,51.80
2022-07-26T11:03:41.559Z,52.08
2022-07-26T11:06:12.245Z,50.95
2022-07-26T11:08:38.792Z,50.17
2022-07-26T11:11:05.457Z,49.58
2022-07-26T11:13:33.473Z,48.98
2022-07-26T11:16:02.609Z,48.63
2022-07-26T11:18:32.566Z,49.29
2022-07-26T11:21:15.648Z,50.12
2022-07-26T11:23:46.551Z,50.90
2022-07-26T11:26:23.269Z,51.44
2022-07-26T11:28:55.520Z,51.52
2022-07-26T11:31:55.871Z,52.20
2022-07-26T11:34:29.371Z,52.41
2022-07-26T11:36:58.905Z,53.22
2022-07-26T11:39:27.938Z,53.82
2022-07-26T11:42:01.651Z,54.54
2022-07-26T11:44:29.089Z,55.08
2022-07-26T11:46:57.643Z,55.82
2022-07-26T11:49:59.700Z,55.95
2022-07-26T11:52:25.058Z,55.88
2022-07-26T11:54:53.184Z,55.92
2022-07-26T11:57:20.113Z,56.36
2022-07-26T11:59:48.463Z,54.61
2022-07-26T12:02:15.506Z,53.69
2022-07-26T12:04:43.492Z,52.31
2022-07-26T12:07:12.346Z,51.77
2022-07-26T12:10:01.489Z,50.67
2022-07-26T12:12:31.054Z,51.25
2022-07-26T12:15:02.673Z,49.71
2022-07-26T12:17:35.129Z,46.47
2022-07-26T12:20:17.566Z,46.40
2022-07-26T12:23:04.952Z,46.68
2022-07-26T12:25:31.621Z,46.64
2022-07-26T12:27:58.090Z,47.43
2022-07-26T12:30:25.636Z,47.96
2022-07-26T12:33:02.117Z,47.67
2022-07-26T12:35:33.343Z,47.20
2022-07-26T12:37:59.955Z,47.59
2022-07-26T12:40:29.305Z,45.48
2022-07-26T12:43:01.253Z,45.97
2022-07-26T12:45:32.565Z,46.77
2022-07-26T12:48:00.870Z,48.49
2022-07-26T12:50:29.071Z,49.21
2022-07-26T12:53:07.091Z,48.73
2022-07-26T12:55:34.433Z,49.24
2022-07-26T12:58:01.271Z,49.85
2022-07-26T13:00:29.616Z,48.23
2022-07-26T13:02:57.191Z,47.29
2022-07-26T13:05:24.022Z,45.83
2022-07-26T13:07:52.785Z,45.79
2022-07-26T13:10:48.305Z,45.84
2022-07-26T13:13:16.464Z,45.45
2022-07-26T13:15:44.442Z,45.52
2022-07-26T13:18:12.948Z,47.32
2022-07-26T13:20:39.446Z,48.36
2022-07-26T13:23:12.720Z,47.04
2022-07-26T13:25:40.891Z,46.19
2022-07-26T13:28:10.040Z,46.51
2022-07-26T13:30:47.216Z,45.93
2022-07-26T13:33:16.347Z,45.47
2022-07-26T13:35:42.920Z,45.68
2022-07-26T13:38:10.089Z,45.00
2022-07-26T13:40:36.583Z,44.29
2022-07-26T13:43:07.409Z,45.04
2022-07-26T13:45:38.366Z,44.75
2022-07-26T13:48:05.656Z,44.29
2022-07-26T13:50:32.179Z,43.43
2022-07-26T13:52:59.178Z,44.81
2022-07-26T13:55:28.804Z,45.58
2022-07-26T13:57:56.636Z,45.61
2022-07-26T14:00:25.517Z,46.21
2022-07-26T14:02:52.094Z,46.10
2022-07-26T14:05:20.588Z,46.91
2022-07-26T14:07:50.596Z,46.80
2022-07-26T14:13:01.067Z,48.10
2022-07-26T14:15:27.439Z,48.61
2022-07-26T14:18:00.553Z,47.38
2022-07-26T14:20:27.353Z,45.84
2022-07-26T14:22:56.897Z,46.32
2022-07-26T14:25:25.563Z,45.56
2022-07-26T14:27:53.609Z,46.30
2022-07-26T14:30:27.380Z,46.85
2022-07-26T14:32:57.378Z,47.03
2022-07-26T14:35:25.673Z,46.56
2022-07-26T14:37:59.419Z,46.06
2022-07-26T14:40:26.148Z,46.29
2022-07-26T14:42:55.527Z,45.60
2022-07-26T14:45:38.378Z,46.63
2022-07-26T14:48:51.937Z,45.82
2022-07-26T14:51:21.149Z,45.33
2022-07-26T14:53:51.207Z,45.11
2022-07-26T14:56:40.619Z,45.96
2022-07-26T14:59:50.708Z,45.63
2022-07-26T15:02:29.331Z,45.28
2022-07-26T15:05:03.675Z,45.75
2022-07-26T15:07:47.930Z,46.42
2022-07-26T15:10:20.746Z,45.93
2022-07-26T15:12:52.174Z,44.79
2022-07-26T15:15:18.766Z,45.65
2022-07-26T15:17:53.488Z,46.18
2022-07-26T15:29:18.832Z,45.34
2022-07-26T15:35:01.735Z,45.52
2022-07-26T15:37:28.799Z,46.20
2022-07-26T15:40:13.995Z,47.00
2022-07-26T15:42:47.402Z,46.51
2022-07-26T15:45:15.372Z,45.11
2022-07-26T15:47:54.875Z,45.18
2022-07-26T15:50:29.975Z,45.80
2022-07-26T15:52:56.677Z,46.34
2022-07-26T15:55:23.618Z,46.02
2022-07-26T15:57:50.116Z,46.41
2022-07-26T16:00:17.037Z,45.94
2022-07-26T16:02:54.024Z,45.46
2022-07-26T16:05:20.905Z,46.22
2022-07-26T16:07:47.856Z,46.23
2022-07-26T16:10:14.832Z,46.18
2022-07-26T16:12:42.212Z,46.22
2022-07-26T16:15:10.383Z,46.44
2022-07-26T16:17:37.354Z,47.17
2022-07-26T16:20:04.763Z,45.69
2022-07-26T16:22:42.644Z,46.49
2022-07-26T16:25:10.115Z,47.14
2022-07-26T16:27:41.821Z,47.35
2022-07-26T16:30:43.706Z,47.13
2022-07-26T16:33:20.065Z,47.53
2022-07-26T16:35:48.492Z,48.26
2022-07-26T16:38:24.929Z,48.32
2022-07-26T16:40:53.175Z,48.36
2022-07-26T16:43:20.853Z,49.18
2022-07-26T16:45:47.278Z,49.70
2022-07-26T16:48:13.796Z,50.22
2022-07-26T16:50:40.679Z,50.49
2022-07-26T16:53:10.391Z,50.84
2022-07-26T16:55:39.543Z,50.78
2022-07-26T16:58:05.980Z,50.51
2022-07-26T17:00:32.442Z,49.73
2022-07-26T17:02:59.051Z,49.97
2022-07-26T17:05:25.489Z,50.29
2022-07-26T17:07:52.127Z,51.21
2022-07-26T17:10:18.778Z,51.35
2022-07-26T17:12:45.646Z,50.95
2022-07-26T17:15:13.809Z,50.46
2022-07-26T17:17:41.562Z,50.43
2022-07-26T17:20:10.568Z,50.82
2022-07-26T17:22:37.182Z,51.10
2022-07-26T17:25:05.340Z,50.79
2022-07-26T17:27:31.740Z,50.46
2022-07-26T17:29:59.887Z,50.26
2022-07-26T17:32:29.573Z,50.00
2022-07-26T17:34:56.279Z,50.10
2022-07-26T17:37:22.775Z,49.48
2022-07-26T17:39:52.551Z,49.39
2022-07-26T17:42:20.205Z,49.13
2022-07-26T17:44:46.687Z,49.73
2022-07-26T17:47:28.486Z,50.29
2022-07-26T17:50:08.961Z,49.98
2022-07-26T17:52:45.080Z,51.44
2022-07-26T17:55:11.531Z,52.67
2022-07-26T17:57:38.093Z,53.05
2022-07-26T18:00:06.687Z,54.35
2022-07-26T18:02:33.484Z,54.72
2022-07-26T18:04:59.986Z,55.23
2022-07-26T18:07:26.483Z,54.30
2022-07-26T18:09:52.899Z,53.54
2022-07-26T18:12:19.348Z,53.80
2022-07-26T18:14:45.782Z,53.68
2022-07-26T18:17:12.340Z,53.47
2022-07-26T18:19:38.796Z,52.35
2022-07-26T18:22:06.238Z,52.54
2022-07-26T18:24:33.089Z,52.77
2022-07-26T18:26:59.523Z,53.42
2022-07-26T18:29:25.993Z,53.26
2022-07-26T18:31:52.536Z,54.00
2022-07-26T18:34:19.031Z,54.13
2022-07-26T18:36:45.481Z,54.65
2022-07-26T18:39:12.496Z,54.49
2022-07-26T18:41:39.153Z,53.89
2022-07-26T18:44:05.886Z,54.01
2022-07-26T18:46:32.367Z,53.89
2022-07-26T18:49:00.246Z,53.42
2022-07-26T18:51:28.776Z,52.33
2022-07-26T18:53:55.257Z,52.45
2022-07-26T18:56:21.717Z,53.09
2022-07-26T18:58:48.144Z,53.98
2022-07-26T19:01:14.806Z,53.75
2022-07-26T19:03:41.273Z,54.81
2022-07-26T19:06:08.645Z,54.56
2022-07-26T19:08:35.043Z,54.45
2022-07-26T19:11:01.480Z,54.22
2022-07-26T19:13:27.913Z,54.46
2022-07-26T19:15:54.531Z,54.34
2022-07-26T19:18:20.957Z,54.18
2022-07-26T19:20:47.384Z,55.02
2022-07-26T19:23:13.938Z,55.27
2022-07-26T19:25:41.427Z,54.70
2022-07-26T19:28:08.561Z,54.80
2022-07-26T19:30:36.698Z,54.51
2022-07-26T19:33:03.205Z,54.60
2022-07-26T19:35:30.429Z,54.69
2022-07-26T19:37:57.390Z,54.74
2022-07-26T19:40:24.007Z,54.59
2022-07-26T19:42:50.430Z,55.27
2022-07-26T19:45:16.937Z,55.28
2022-07-26T19:47:44.377Z,54.99
2022-07-26T19:50:11.830Z,54.93
2022-07-26T19:52:39.057Z,55.42
2022-07-26T19:55:06.119Z,55.19
2022-07-26T19:57:32.582Z,55.51
2022-07-26T20:00:00.491Z,55.31
2022-07-26T20:02:26.935Z,55.96
2022-07-26T20:04:54.473Z,56.28
2022-07-26T20:07:21.139Z,56.90
2022-07-26T20:09:49.121Z,56.71
2022-07-26T20:12:16.181Z,56.72
2022-07-26T20:14:42.978Z,56.78
2022-07-26T20:17:12.019Z,57.42
2022-07-26T20:19:39.782Z,57.67
2022-07-26T20:22:06.610Z,58.66
2022-07-26T20:24:33.102Z,58.48
2022-07-26T20:26:59.656Z,58.80
2022-07-26T20:29:26.131Z,58.69
2022-07-26T20:31:52.550Z,59.11
2022-07-26T20:34:18.999Z,59.54
2022-07-26T20:36:46.035Z,59.57
2022-07-26T20:39:13.055Z,59.71
2022-07-26T20:41:39.925Z,59.72
2022-07-26T20:44:06.545Z,59.77
2022-07-26T20:46:33.547Z,60.51
2022-07-26T20:49:00.205Z,60.55
2022-07-26T20:51:26.659Z,60.22
2022-07-26T20:53:53.138Z,59.98
2022-07-26T20:56:19.550Z,60.08
2022-07-26T20:58:45.983Z,60.12
2022-07-26T21:01:13.823Z,59.76
2022-07-26T21:03:40.457Z,59.56
2022-07-26T21:06:06.987Z,59.30
2022-07-26T21:08:33.374Z,59.59
2022-07-26T21:10:59.797Z,60.00
2022-07-26T21:13:26.236Z,59.47
2022-07-26T21:15:54.244Z,58.70
2022-07-26T21:18:21.313Z,56.50
2022-07-26T21:20:47.966Z,52.72
2022-07-26T21:23:17.897Z,52.58
2022-07-26T21:25:44.911Z,49.72
2022-07-26T21:28:11.442Z,50.64
2022-07-26T21:30:38.324Z,48.88
2022-07-26T21:33:05.497Z,48.95
2022-07-26T21:35:32.304Z,48.75
2022-07-26T21:37:58.843Z,47.49
2022-07-26T21:40:25.461Z,47.20
2022-07-26T21:42:51.961Z,47.47
2022-07-26T21:45:18.553Z,47.44
2022-07-26T21:47:45.002Z,47.71
2022-07-26T21:50:12.129Z,47.06
2022-07-26T21:52:38.544Z,47.02
2022-07-26T21:55:05.601Z,47.30
2022-07-26T21:57:31.998Z,47.12
2022-07-26T21:59:59.161Z,46.33
2022-07-26T22:02:26.054Z,47.15
2022-07-26T22:04:52.519Z,46.88
2022-07-26T22:07:18.925Z,46.92
2022-07-26T22:09:45.368Z,47.05
2022-07-26T22:12:11.799Z,47.29
2022-07-26T22:14:38.261Z,47.53
2022-07-26T22:17:04.731Z,47.06
2022-07-26T22:19:31.230Z,47.54
2022-07-26T22:21:57.711Z,47.20
2022-07-26T22:24:24.150Z,47.32
2022-07-26T22:26:50.562Z,46.86
2022-07-26T22:29:17.001Z,47.28
2022-07-26T22:31:43.526Z,47.91
2022-07-26T22:34:10.137Z,48.16
2022-07-26T22:36:36.563Z,47.86
2022-07-26T22:39:03.202Z,47.34
2022-07-26T22:41:31.705Z,47.27
2022-07-26T22:43:59.112Z,47.12
2022-07-26T22:46:27.630Z,47.61
2022-07-26T22:48:55.707Z,47.57
2022-07-26T22:51:22.167Z,48.18
2022-07-26T22:53:48.588Z,48.19
2022-07-26T22:56:19.680Z,48.73
2022-07-26T22:58:46.834Z,48.63
2022-07-26T23:01:13.702Z,48.47
2022-07-26T23:03:41.429Z,48.18
2022-07-26T23:06:21.009Z,48.80
2022-07-26T23:08:57.296Z,48.27
2022-07-26T23:11:23.733Z,48.88
2022-07-26T23:13:50.142Z,48.79
2022-07-26T23:16:16.644Z,49.08
2022-07-26T23:18:43.074Z,48.84
2022-07-26T23:21:09.526Z,48.87
2022-07-26T23:23:35.973Z,48.84
2022-07-26T23:26:02.470Z,49.34
2022-07-26T23:28:36.210Z,49.24
2022-07-26T23:31:09.038Z,49.29
2022-07-26T23:33:52.594Z,49.52
2022-07-26T23:36:30.237Z,49.94
2022-07-26T23:38:58.706Z,50.04
2022-07-26T23:41:26.547Z,50.46
2022-07-26T23:43:54.023Z,49.44
2022-07-26T23:46:20.950Z,50.17
2022-07-26T23:48:47.543Z,49.69
2022-07-26T23:51:14.768Z,50.46
2022-07-26T23:53:41.334Z,50.37
2022-07-26T23:56:08.020Z,50.30
2022-07-26T23:58:34.444Z,50.40
